2015 Hungry Duck

back to results

Jul. 4, 2015

2015 Hungry Duck
Brighton, MI
Provided by Rotpac Racing, L.L.C.


Hungry Duck Half Marathon
Age Group Results
July 04, 2015
Results By Rotpac Racing Rotpac Racing http://www.rotpac.com

Half Marathon
Female Open Winners

Place Name City Age Overall Total Time Pace
1 Kelsey Bragg Fenton MI 5 1:28:02.2 6:43/M

Female Masters' Winners

Place Name City Age Overall Total Time Pace
1 Angie McCalla Chelsea MI 44 30 1:41:40.3 7:46/M

Female 14 and under

Place Name City Age Overall Total Time Pace
1 Catherine Ihrke New Lenox IL 12 159 2:33:29.2 11:43/M

Female 15 to 19

Place Name City Age Overall Total Time Pace
1 Rachel Auer Canton MI 16 68 1:56:55.0 8:55/M
2 Taylor Topolski Canton MI 18 151 2:24:48.0 11:03/M
3 Elizabeth Ihrke New Lenox IL 15 160 2:33:29.3 11:43/M

Female 20 to 24

Place Name City Age Overall Total Time Pace
1 Kelsey Dischler Macomb MI 23 47 1:49:58.7 8:24/M
2 Carly Thibault Canton MI 23 50 1:50:42.7 8:27/M
3 Emma McClory South Lyon MI 22 116 2:13:10.8 10:10/M
4 Celia Staniak Macomb MI 20 134 2:17:47.0 10:31/M
5 Erica Foley New Hudson MI 23 150 2:24:48.0 11:03/M

Female 25 to 29

Place Name City Age Overall Total Time Pace
1 Ellie Reinbrecht Sylvania OH 25 34 1:44:10.9 7:57/M
2 Samantha Kaca Warren MI 25 49 1:50:18.4 8:25/M
3 Marianne Mousigian Dearborn MI 28 58 1:53:16.8 8:39/M
4 Jennifer Lane Unalaska AK 28 79 1:59:33.9 9:08/M
5 Megan Carnaghi Lansing MI 28 82 1:59:46.5 9:09/M
6 Danielle Kraai Zeeland MI 28 117 2:13:51.9 10:13/M
7 Kaitlin Kraai Zeeland MI 29 118 2:13:52.1 10:13/M
8 Kathrine Darnell Saint Joseph MI 29 137 2:18:46.9 10:36/M
9 Megan Sever Baltimore MD 29 139 2:21:04.5 10:46/M
10 Anna Step Whitmore Lake MI 27 143 2:22:05.3 10:51/M
11 Heather Forst Saint Louis MO 25 161 2:34:01.8 11:45/M

Female 30 to 34

Place Name City Age Overall Total Time Pace
1 Amy Natalini Belleville IL 33 8 1:31:19.4 6:58/M
2 Ashley Truan New Hudson MI 32 18 1:37:49.3 7:28/M
3 Samantha Kment Belleville MI 30 33 1:43:47.0 7:55/M
4 Jessie Jarrad Howell MI 33 71 1:57:27.3 8:58/M
5 Lauren Velazquez Orlando FL 32 80 1:59:35.2 9:08/M
6 Caren Russell Saint Clair Shores MI 34 106 2:09:57.4 9:55/M
7 Jessica Oneto Las Vegas NV 33 112 2:12:11.0 10:05/M
8 Melissa Reilly Hilliard OH 32 130 2:17:15.2 10:29/M
9 Jennifer Altermatt Commerce Township MI 33 140 2:21:47.8 10:49/M
10 Sarah Poulin Grass Lake MI 33 142 2:21:56.1 10:50/M
11 Amanda Walsh Brighton MI 30 144 2:22:05.4 10:51/M
12 Allison Staccone Maumee OH 30 148 2:24:04.5 11:00/M
13 Laura Gudme Farmington MI 32 152 2:25:02.3 11:04/M

Female 35 to 39

Place Name City Age Overall Total Time Pace
1 Jennifer Reid-Lamb Howell MI 39 42 1:47:55.0 8:14/M
2 Hollie Schrock Howell MI 37 54 1:51:55.1 8:33/M
3 Karen Kazensky Westland MI 36 55 1:52:36.4 8:36/M
4 Jennifer Harper Whitmore Lake MI 39 61 1:54:30.1 8:44/M
5 Tracy Flak Howell MI 36 72 1:58:01.4 9:01/M
6 Julie McGill Brighton MI 38 94 2:03:18.7 9:25/M
7 Katie Carter Canton MI 35 96 2:04:52.5 9:32/M
8 Megan Gardam Toledo OH 38 102 2:08:22.0 9:48/M
9 Laura Schneider Arlington VA 38 104 2:09:02.4 9:51/M
10 Jennifer Gillett Livonia MI 37 120 2:14:47.0 10:17/M
11 Amy Shanks Ypsilanti MI 38 128 2:16:58.8 10:27/M
12 Laura Lovelace Cheshire CT 39 131 2:17:15.3 10:29/M
13 Autumn Ochoa Fraser MI 35 132 2:17:28.1 10:30/M
14 Stefania Hutchins Macomb MI 38 136 2:18:01.7 10:32/M
15 Abby Cooper Brighton MI 38 141 2:21:47.9 10:49/M
16 Mary Beth Snyder Birmingham MI 36 156 2:28:44.4 11:21/M
17 Michelle Tibai Cape Coral FL 39 163 2:38:41.3 12:07/M

Female 40 to 44

Place Name City Age Overall Total Time Pace
1 Stephanie Smith Howell MI 44 32 1:43:19.8 7:53/M
2 Marcie Johnson Columbus IN 44 41 1:46:47.9 8:09/M
3 Robyn Kaiser Ypsilanti MI 42 51 1:50:46.4 8:27/M
4 Melissa Kripl Romeo MI 43 53 1:51:39.4 8:31/M
5 Tendai Thomas Farmington MI 40 56 1:52:37.1 8:36/M
6 Amber Ihrke New Lenox IL 44 81 1:59:36.3 9:08/M
7 Elizabeth Remke Ann Arbor MI 44 90 2:00:40.2 9:13/M
8 Stephanie Doan Grand Blanc MI 44 114 2:12:28.1 10:07/M
9 Letty Azar Harrison Township MI 42 115 2:12:42.3 10:08/M
10 Carla Morrin Ypsilanti MI 41 121 2:15:01.1 10:18/M
11 Carrie Gervasone Fraser MI 41 133 2:17:28.2 10:30/M
12 Janet White Maumee OH 40 146 2:24:02.4 11:00/M

Female 45 to 49

Place Name City Age Overall Total Time Pace
1 Nancy Damm Ann Arbor MI 48 39 1:46:15.8 8:07/M
2 Kris Eckman Pinckney MI 45 64 1:56:07.9 8:52/M
3 Jodi Talbott Whitmore Lake MI 45 65 1:56:08.2 8:52/M
4 Cathy Edwards Brighton MI 45 73 1:58:32.1 9:03/M
5 Denise Dashner Temperance MI 45 77 1:59:18.1 9:06/M
6 Ana Maria Mathis Dearborn MI 47 83 1:59:49.7 9:09/M
7 Karen Phelps Saline MI 46 89 2:00:40.1 9:13/M
8 Trisha Leonard Canton MI 45 91 2:01:30.6 9:16/M
9 Arkeisha Walker Southfield MI 46 103 2:08:37.0 9:49/M
10 Kristen Deloney Flushing MI 49 122 2:15:09.4 10:19/M
11 Cheryl Dischler Macomb MI 48 135 2:17:47.2 10:31/M
12 Sharmene Syversen Brighton MI 45 145 2:22:55.3 10:55/M
13 Julie Kropinski Walled Lake MI 45 154 2:27:37.1 11:16/M

Female 50 to 54

Place Name City Age Overall Total Time Pace
1 Patricia Rapp Sylvania OH 52 62 1:54:39.5 8:45/M
2 Michelle Groechel Novi MI 52 66 1:56:11.4 8:52/M
3 Arlene Degutis Ann Arbor MI 50 101 2:07:44.0 9:45/M
4 Debra Rojewski Fowlerville MI 50 107 2:10:09.8 9:56/M
5 Beverly Reinbrecht Sylvania OH 52 147 2:24:03.8 11:00/M
6 Jayne Williams Howell MI 50 158 2:31:34.7 11:34/M

Female 55 to 59

Place Name City Age Overall Total Time Pace
1 Carol Facca Rochester MI 57 69 1:56:58.3 8:56/M
2 Jill Winegar Howell MI 56 111 2:12:00.2 10:05/M
3 Pam Lee-Campbell Brighton MI 56 129 2:17:05.5 10:28/M
4 Marietta English Rochester MI 58 162 2:37:17.5 12:00/M

Female 60 to 64

Place Name City Age Overall Total Time Pace
1 Dawn Smith Farmington MI 60 157 2:29:33.6 11:25/M

Male Open Winners

Place Name City Age Overall Total Time Pace
1 Craig Dolecki Westland MI 41 1 1:22:31.7 6:18/M

Male Masters' Winners

Place Name City Age Overall Total Time Pace
1 Hiroyuki Shiomi Ann Arbor MI 43 3 1:26:05.9 6:34/M

Male 15 to 19

Place Name City Age Overall Total Time Pace
1 Johnny Yang Novi MI 16 2 1:25:58.4 6:34/M
2 Jacob Allen South Lyon MI 19 9 1:32:36.8 7:04/M
3 Revanth Maham West Bloomfield MI 16 14 1:35:25.5 7:17/M
4 Rahul Khambete West Bloomfield MI 16 16 1:35:40.9 7:18/M
5 Nick Cholisi Farmington MI 17 22 1:38:52.4 7:33/M
6 Harrison King Lambertville MI 19 45 1:49:22.3 8:21/M

Male 20 to 24

Place Name City Age Overall Total Time Pace
1 Jack Dischler Macomb MI 21 11 1:33:56.9 7:10/M
2 Keenan Hassell Livonia MI 23 31 1:42:40.5 7:50/M
3 Roberto Rodriguez Brighton MI 24 74 1:58:43.7 9:04/M
4 Dominik Traudt Brighton MI 24 75 1:58:52.5 9:04/M
5 Andrew Dhaenens Starkville MS 24 124 2:16:04.0 10:23/M

Male 25 to 29

Place Name City Age Overall Total Time Pace
1 Storm Robinson Ferndale MI 26 19 1:38:06.2 7:29/M
2 Zachary Ellsworth Brighton MI 25 35 1:44:44.7 8:00/M
3 Justin Rauhoff Macomb MI 25 46 1:49:57.8 8:24/M
4 Joseph Cubera Birmingham MI 28 67 1:56:48.7 8:55/M

Male 30 to 34

Place Name City Age Overall Total Time Pace
1 Brian Walsh Brighton MI 32 12 1:34:10.3 7:11/M
2 Chris Gavas Ypsilanti MI 31 21 1:38:48.9 7:33/M
3 Nicholas Cron Dutch Harbor AK 31 25 1:39:50.2 7:37/M
4 Brian Popeney Brighton MI 30 87 2:00:02.2 9:10/M

Male 35 to 39

Place Name City Age Overall Total Time Pace
1 Jeremy Latsko Pataskala OH 35 10 1:33:25.6 7:08/M
2 Amir Afsai Tel Aviv 35 17 1:36:04.8 7:20/M
3 Scott Studer Tecumseh MI 35 23 1:39:23.8 7:35/M
4 Shawn Reiser Fenton MI 39 24 1:39:43.3 7:37/M
5 Bryan Lively Rochester MI 38 29 1:41:22.1 7:44/M
6 Frederick Lovelace, Jr Cheshire CT 39 36 1:45:16.9 8:02/M
7 Anthony Atrasz Troy MI 37 57 1:53:08.4 8:38/M
8 Eddie Floyd II Farmington MI 35 63 1:55:49.1 8:50/M
9 Nick Soulliere Brighton MI 36 100 2:06:38.9 9:40/M
10 Robert Poulin Grass Lake MI 36 108 2:10:42.3 9:59/M
11 Jorge Broggio Brighton MI 39 109 2:10:44.0 9:59/M
12 Scott Carpenter Canton MI 38 113 2:12:19.0 10:06/M
13 Jake Haselswerdt Ann Arbor MI 35 123 2:15:49.1 10:22/M
14 Jeffrey Schneider Ann Arbor MI 36 149 2:24:31.6 11:02/M

Male 40 to 44

Place Name City Age Overall Total Time Pace
1 Andrew Hively Brighton MI 42 37 1:45:35.1 8:04/M
2 Kyle Fukuda Granite Bay CA 44 52 1:51:06.3 8:29/M
3 Steve Wisinski Brighton MI 40 59 1:53:40.8 8:41/M
4 Jason Davis Brighton MI 40 76 1:59:05.9 9:05/M
5 Derek McGill Brighton MI 41 93 2:03:18.6 9:25/M
6 Louis Payne Las Vegas NV 40 98 2:05:43.0 9:36/M
7 Jason Gordon Huntington Woods MI 43 153 2:26:13.1 11:10/M

Male 45 to 49

Place Name City Age Overall Total Time Pace
1 Atsuyuki Wakamatsu Ann Arbor MI 46 4 1:26:28.3 6:36/M
2 Adam Unsworth Ann Arbor MI 46 7 1:29:12.1 6:49/M
3 Enrique Acosta Walled Lake MI 48 60 1:54:14.9 8:43/M
4 Bob Garza Dearborn Heights MI 48 84 1:59:51.2 9:09/M
5 David Ihrke New Lenox IL 46 88 2:00:02.6 9:10/M
6 Mike Archinal Brighton MI 47 97 2:05:10.9 9:33/M

Male 50 to 54

Place Name City Age Overall Total Time Pace
1 Ed Nicholson Milford MI 51 13 1:35:18.2 7:16/M
2 John Demarco Brighton MI 53 20 1:38:31.4 7:31/M
3 Greg Lanzi Brighton MI 50 28 1:40:49.3 7:42/M
4 Jim Rocktoff Farmington MI 53 38 1:46:11.2 8:06/M
5 Damian Badish Gregory MI 50 40 1:46:17.0 8:07/M
6 Dave Mann Detroit MI 54 43 1:47:58.4 8:15/M
7 Anthony Targan West Bloomfield MI 53 44 1:48:40.6 8:18/M
8 Yasu Arai Brighton MI 53 48 1:50:14.7 8:25/M
9 Raymond Bonemo Brighton MI 50 70 1:57:09.2 8:57/M
10 Brian Richardson Brighton MI 50 78 1:59:21.1 9:07/M
11 Qinghui Liu Ann Arbor MI 52 86 1:59:57.8 9:09/M
12 Dan Limer Brighton MI 51 92 2:01:38.6 9:17/M
13 Jacek Glowacki Grand Blanc MI 53 125 2:16:12.9 10:24/M

Male 55 to 59

Place Name City Age Overall Total Time Pace
1 Harold Rutka Fenton MI 55 6 1:28:16.3 6:44/M
2 Rick Armes Livonia MI 55 26 1:40:30.0 7:40/M
3 Domingo Valadez Temperance MI 56 85 1:59:51.9 9:09/M
4 Michael McClory South Lyon MI 57 95 2:03:34.2 9:26/M
5 Michael Yamada Franklin MI 56 99 2:06:04.9 9:37/M
6 Matthew McCloskey Sylvania OH 55 105 2:09:02.7 9:51/M
7 Hamdo Mesinovic Farmington MI 58 110 2:11:15.2 10:01/M
8 Michael Thibodeau Grand Blanc MI 58 127 2:16:49.7 10:27/M
9 Paulo Sugai Saline MI 55 138 2:20:26.8 10:43/M
10 Jeff Trauben Walled Lake MI 57 155 2:27:37.2 11:16/M

Male 60 to 64

Place Name City Age Overall Total Time Pace
1 Thomas Taylor Northville MI 60 15 1:35:40.8 7:18/M
2 Jim Duprey Novi MI 61 126 2:16:40.1 10:26/M

Male 65 to 69

Place Name City Age Overall Total Time Pace
1 Tony Hubbarth Brighton MI 65 27 1:40:31.0 7:40/M

Male 70 and over

Place Name City Age Overall Total Time Pace
1 James Caporali Farmington MI 73 119 2:14:16.0 10:15/M

5K Run/Walk
Female Open Winners

Place Name City Age Overall Total Time Pace
1 Erin Webster Dearborn MI 29 6 17:55.6 5:46/M

Female Masters' Winners

Place Name City Age Overall Total Time Pace
1 Jeralyn McGahan Brighton MI 49 29 22:11.8 7:08/M

Female 14 and under

Place Name City Age Overall Total Time Pace
1 Isabella Schmenk Brighton MI 12 34 23:18.7 7:30/M
2 Alyssa Kanclerz Howell MI 14 46 24:12.6 7:47/M
3 Sage Bissett South Lyon MI 9 80 26:18.1 8:27/M
4 Carolyn Ingram Brighton MI 14 99 27:14.8 8:45/M
5 Breanna Ziegler Brighton MI 13 101 27:17.5 8:46/M
6 Elle Bissett South Lyon MI 8 107 27:36.7 8:52/M
7 Lindsey Thomas Ann Arbor MI 13 114 28:04.2 9:01/M
8 Sarah Faruzzi Brighton MI 13 123 28:24.6 9:08/M
9 Hannah Davis Brighton MI 11 145 29:59.0 9:38/M
10 Josie Fischer Brighton MI 10 153 30:23.2 9:46/M
11 Abigail Wright Howell MI 10 161 30:57.6 9:57/M
12 Keegan Laurent Pinckney MI 14 179 31:57.0 10:16/M
13 Jessica Herington Brighton MI 12 188 32:40.3 10:30/M
14 Isabella Soraruf Brighton MI 9 204 33:55.4 10:54/M
15 Bryn Concepcion Brighton MI 13 211 34:25.6 11:04/M
16 Katie Root Howell MI 06 215 35:03.9 11:16/M
17 Sophia Thomas Ann Arbor MI 9 259 40:02.8 12:52/M
18 Emily Ihrke New Lenox IL 9 265 40:53.5 13:09/M
19 Madeline Ihrke New Lenox IL 12 266 41:02.2 13:12/M
20 Lucy Mejia Brighton MI 9 275 42:20.7 13:37/M

Female 15 to 19

Place Name City Age Overall Total Time Pace
1 Emma Lane Fenton MI 16 15 21:00.9 6:45/M
2 Marissa McGahan Brighton MI 19 22 21:41.6 6:58/M
3 Kaya Johnson Brighton MI 15 36 23:27.6 7:32/M
4 Lindsey Murrell Brighton MI 15 37 23:27.9 7:32/M
5 Danielle Demarco Brighton MI 17 67 25:22.3 8:09/M
6 Madeline Demarco Ann Arbor MI 19 73 25:43.6 8:16/M
7 Sarah Wood Brighton MI 19 100 27:16.7 8:46/M
8 Rachel Houtteman Brighton MI 18 120 28:21.9 9:07/M
9 Madison Lemieux Fowlerville MI 15 135 29:08.8 9:22/M
10 Sydney Burton South Lyon MI 17 167 31:06.0 10:00/M
11 Chloe Kirkpatrick Howell MI 17 168 31:06.7 10:00/M
12 Sarah Groechel Novi MI 15 184 32:30.7 10:27/M
13 Erica Eschenburg Brighton MI 16 214 34:35.7 11:07/M
14 Alexandra Perry Brighton MI 17 232 36:47.3 11:50/M
15 Camyle Cryderman Westland MI 19 238 37:57.9 12:12/M
16 Christina Anthony South Lyon MI 17 249 38:41.4 12:26/M
17 Nicole Pierce Bemidji MN 19 260 40:07.1 12:54/M

Female 20 to 24

Place Name City Age Overall Total Time Pace
1 Courtney Jenkins Pinckney MI 21 52 24:37.4 7:55/M
2 Morgan Caucey Pinckney MI 24 97 27:12.8 8:45/M
3 Elyse Cloeter South Lyon MI 21 121 28:22.4 9:07/M
4 Shannon Line South Lyon MI 20 122 28:22.8 9:07/M
5 Allison Boote Pinckney MI 20 152 30:12.3 9:43/M
6 Rachel Hoehn Brighton MI 24 156 30:42.2 9:52/M
7 Mackenzie Munro Whitmore Lake MI 24 200 33:31.7 10:47/M
8 Samantha Fraser South Lyon MI 24 216 35:17.4 11:21/M
9 Abigayle Cryderman Westland MI 22 217 35:27.5 11:24/M

Female 25 to 29

Place Name City Age Overall Total Time Pace
1 Kimberly Ang Brighton MI 29 76 26:06.2 8:24/M
2 Brittany Evans Pinckney MI 25 77 26:09.9 8:25/M
3 Heather Fisher Whitmore Lake MI 26 87 26:51.6 8:38/M
4 Katherine Simmermen Novi MI 28 137 29:22.6 9:27/M
5 Caitlin Brown Philadelphia PA 28 151 30:09.4 9:42/M
6 Jenna Hendershot Brighton MI 27 227 36:29.4 11:44/M
7 Samantha Tomlinson Oswego IL 25 228 36:29.5 11:44/M
8 Kerry Muldowney Brighton MI 29 254 39:03.7 12:33/M
9 Amelia Barrons Saint Paul MN 29 256 39:08.8 12:35/M
10 Anna Tansey Milford MI 26 257 39:16.3 12:38/M
11 Kimberly Flavell Louisville KY 28 279 43:26.3 13:58/M

Female 30 to 34

Place Name City Age Overall Total Time Pace
1 Jennifer Ormond Novi MI 32 50 24:20.6 7:49/M
2 Andrea Gillespie Brighton MI 30 109 27:44.1 8:55/M
3 Staci Sanders Brighton MI 34 111 27:49.8 8:57/M
4 Emily Whetsell Pinckney MI 30 112 27:57.5 8:59/M
5 Candice Vollweiler Brighton MI 33 117 28:12.1 9:04/M
6 Katharine Nunn Hope Mills NC 30 118 28:18.3 9:06/M
7 Meagan Houhanisin Brighton MI 30 119 28:18.5 9:06/M
8 Rebecca Mayer Hartland MI 33 124 28:27.0 9:09/M
9 Katie Fuchs Ferndale MI 30 128 28:30.5 9:10/M
10 Lindsay Gray Brighton MI 34 140 29:35.7 9:31/M
11 Shannon Mitchelides Jackson OH 32 185 32:33.0 10:28/M
12 Lauren Budzar Independence OH 33 187 32:37.0 10:29/M
13 Susan Southard Los Angeles CA 34 195 33:17.8 10:42/M
14 Misty Evenson Greensboro NC 32 197 33:22.3 10:44/M
15 Amie Pierce Westland MI 30 210 34:25.4 11:04/M
16 Katie Dudek Rochester MI 34 213 34:34.2 11:07/M
17 Courtney Atsalakis Pinckney MI 34 222 36:15.3 11:39/M
18 Deborah Thomas Ann Arbor MI 33 299 50:09.9 16:08/M
19 Tara Visel South Lyon MI 30 304 52:04.0 16:45/M
20 Chelsea Earley Mount Juliet TN 31 309 52:55.9 17:01/M
21 Brittney Starr Mount Juliet TN 33 310 52:56.2 17:01/M

Female 35 to 39

Place Name City Age Overall Total Time Pace
1 Nancy Jerome Brighton MI 38 56 24:57.3 8:01/M
2 Stephanie Weaver Whitmore Lake MI 37 61 25:05.8 8:04/M
3 Katie Hartman Brighton MI 36 90 26:59.6 8:41/M
4 Heather Autry Howell MI 36 102 27:29.5 8:50/M
5 Stephanie Newton Brighton MI 39 110 27:49.6 8:57/M
6 Kristina Cockerill Fowlerville MI 36 125 28:27.1 9:09/M
7 Amy Betke Brighton MI 37 134 29:02.6 9:20/M
8 Melissa Minuth Saline MI 38 147 30:00.8 9:39/M
9 Beth Brooks South Lyon MI 35 164 31:01.6 9:58/M
10 Kimberley Witten Canton MI 38 176 31:44.9 10:12/M
11 Jane House Grand Rapids MI 35 198 33:24.1 10:44/M
12 Liz Richardson Saline MI 37 202 33:33.3 10:47/M
13 Anne Moskal Howell MI 36 224 36:16.7 11:40/M
14 Tonya Gray White Lake MI 36 236 37:31.2 12:04/M
15 Marta Lamonica Mount Prospect IL 37 240 37:57.9 12:12/M
16 Michelle Bernardin Howell MI 36 271 41:39.7 13:24/M
17 Corinna Johnson Whitmore Lake MI 39 276 42:21.4 13:37/M
18 Karina Horcha Brighton MI 37 285 45:33.5 14:39/M
19 Katie Carano Brighton MI 35 286 45:33.7 14:39/M

Female 40 to 44

Place Name City Age Overall Total Time Pace
1 Janet Sneckenberger White Lake MI 42 42 23:55.0 7:41/M
2 Maria Jaimes Galveston TX 40 45 24:12.3 7:47/M
3 Heather Gruenhagen Westland MI 40 60 25:04.6 8:04/M
4 Winnie Fukuda Granite Bay CA 44 64 25:16.8 8:07/M
5 Renee McClafferty Highland MI 41 70 25:34.8 8:13/M
6 Sara Johnson Brighton MI 41 78 26:11.3 8:25/M
7 Tracy Stefanides Fraser MI 44 79 26:15.3 8:26/M
8 Denise Foldenaur Hartland MI 42 85 26:49.9 8:37/M
9 Anita Lutz Brighton MI 41 105 27:32.1 8:51/M
10 Adrienne Silvestri Brighton MI 41 116 28:11.7 9:04/M
11 Mona Shand Brighton MI 41 138 29:23.4 9:27/M
12 Christine Barman Brighton MI 43 181 32:17.1 10:23/M
13 Nora Dabrowski Brighton MI 43 205 34:00.6 10:56/M
14 Sara House Brighton MI 42 235 37:29.9 12:03/M
15 Julia Keider Howell MI 40 239 37:57.9 12:12/M
16 Michelle Miller Bemidji MN 41 245 38:07.7 12:15/M
17 Heike Woodard Howell MI 40 248 38:16.1 12:18/M
18 Georgina Koch South Lyon MI 44 251 38:48.2 12:29/M
19 Greta Hundertmark Ypsilanti MI 40 272 41:46.9 13:26/M
20 Laura Zizka-Wright Howell MI 43 303 51:11.2 16:27/M

Female 45 to 49

Place Name City Age Overall Total Time Pace
1 Denise Conroy Washington DC 49 88 26:55.9 8:39/M
2 Cathy Fischer Brighton MI 47 89 26:56.7 8:40/M
3 Heather Clark Pinckney MI 45 143 29:47.6 9:35/M
4 Lori Schultz Howell MI 49 149 30:03.9 9:40/M
5 Janet Glasgow Howell MI 48 162 30:59.2 9:58/M
6 Kathy Edwards Walled Lake MI 46 165 31:02.6 9:59/M
7 Cyndi Agnew South Lyon MI 46 182 32:21.0 10:24/M
8 Colleen Kirasic Brighton MI 47 190 32:41.5 10:31/M
9 Jodi Heileman Westland MI 45 193 33:10.7 10:40/M
10 Tammy Sieber Livonia MI 49 199 33:25.3 10:45/M
11 Colleen Concepcion Brighton MI 46 212 34:31.4 11:06/M
12 Sandra Law Howell MI 45 223 36:15.4 11:39/M
13 Michelle Perry Brighton MI 46 233 36:47.3 11:50/M
14 Laura Burnham Brighton MI 47 278 43:10.3 13:53/M
15 Marla Hardymam Sheridan IL 47 287 45:50.4 14:44/M
16 Anne Richardson Brighton MI 49 290 47:31.0 15:17/M
17 Sharon Badish Gregory MI 49 298 50:02.1 16:05/M
18 Tanya Hanson-Meier Brighton MI 49 305 52:19.0 16:49/M

Female 50 to 54

Place Name City Age Overall Total Time Pace
1 Kumiko Iwaizumi Dexter MI 52 33 23:18.0 7:30/M
2 Vicki Wood White Lake MI 53 35 23:23.4 7:31/M
3 Kim Landauer Brighton MI 50 74 25:49.7 8:18/M
4 Linda Garnica Allen Park MI 50 82 26:38.1 8:34/M
5 Janet Shipp Milford MI 53 108 27:42.4 8:54/M
6 Lisa Tewel Brighton MI 52 129 28:30.7 9:10/M
7 Barbara Line South Lyon MI 54 130 28:33.7 9:11/M
8 Renee Olson Farmington MI 53 141 29:37.8 9:31/M
9 Jennifer Triffo Brighton MI 54 150 30:08.2 9:41/M
10 Jackie Palmer Brighton MI 50 178 31:56.6 10:16/M
11 Mary Ann Beck Brighton MI 53 180 32:02.9 10:18/M
12 Sandy Furtney Brighton MI 54 191 32:45.8 10:32/M
13 Mary Sauer-Games South Lyon MI 54 194 33:17.3 10:42/M
14 Mary Beth Cota Brighton MI 51 207 34:19.3 11:02/M
15 Carol Peterson Howell MI 54 230 36:43.1 11:48/M
16 Jackie Jenkins Pinckney MI 50 255 39:08.0 12:35/M
17 Lisa Kanclerz Howell MI 52 261 40:12.0 12:56/M
18 Susan Garza Dearborn Heights MI 53 280 44:29.9 14:18/M
19 Martha James Plymouth MI 53 292 47:52.3 15:23/M
20 Laura Cryderman Westland MI 51 306 52:21.1 16:50/M

Female 55 to 59

Place Name City Age Overall Total Time Pace
1 Colleen Downes Howell MI 56 142 29:38.9 9:32/M
2 Nancy Nychypor Howell MI 59 148 30:03.4 9:40/M
3 Lisa Hoehn Brighton MI 55 183 32:25.7 10:25/M
4 Lori Bryant Chagrin Falls OH 58 225 36:17.0 11:40/M
5 Mary Wolos Brighton MI 59 237 37:36.6 12:05/M
6 Beth Michmerhuizen Howell MI 55 243 38:05.0 12:15/M
7 Karen Houtteman Brighton MI 57 250 38:46.6 12:28/M
8 Charlene Odom New Hudson MI 58 252 38:55.7 12:31/M
9 Susan Eschenburg Brighton MI 55 264 40:46.6 13:06/M
10 Jan Brown Waterford MI 59 274 42:19.0 13:36/M
11 Stephanie Armes Livonia MI 58 288 46:34.4 14:58/M
12 Janet Dicarlo Pinckney MI 55 294 48:27.7 15:35/M
13 Debra Filgo Brighton MI 57 301 50:52.5 16:21/M
14 Sharon Young Brighton MI 56 302 51:05.7 16:26/M

Female 60 to 64

Place Name City Age Overall Total Time Pace
1 Debbie Polkowski Milford MI 60 39 23:29.2 7:33/M
2 Linda Shearing Brighton MI 62 133 28:54.1 9:18/M
3 Terri Soeder South Lyon MI 63 186 32:33.3 10:28/M
4 Patty Stevenson Brighton MI 62 234 37:03.1 11:55/M
5 Sandra Muldowney Brighton MI 64 253 39:03.7 12:33/M
6 Sharon Gross Brighton MI 61 263 40:22.3 12:59/M
7 Robin Carano Brighton MI 60 281 45:32.3 14:38/M
8 Sheryl Walsh Novi MI 62 295 48:37.4 15:38/M

Female 65 to 69

Place Name City Age Overall Total Time Pace
1 Lucinda Badicio Las Vegas NV 66 270 41:37.9 13:23/M

Female 70 and over

Place Name City Age Overall Total Time Pace
1 Ellen Nitz Brighton MI 74 158 30:44.1 9:53/M
2 Brenda Badish Gregory MI 74 297 49:26.0 15:54/M

Male Open Winners

Place Name City Age Overall Total Time Pace
1 Nick Katsefaros Brighton MI 28 1 15:59.3 5:08/M

Male Masters' Winners

Place Name City Age Overall Total Time Pace
1 Rich Benson Howell MI 45 12 20:37.9 6:38/M

Male 14 and under

Place Name City Age Overall Total Time Pace
1 Nate Wood Novi MI 14 8 19:18.4 6:12/M
2 Kelly Carmichael, Jr Galveston TX 13 10 19:44.1 6:21/M
3 Nolan McGahan Brighton MI 13 21 21:41.1 6:58/M
4 Remy Fischer Brighton MI 13 31 23:04.2 7:25/M
5 Christopher Sharp Brighton MI 11 43 23:57.3 7:42/M
6 Cooper Buckley Brighton MI 13 47 24:14.7 7:48/M
7 Zachary Johnson Whitmore Lake MI 12 57 24:57.7 8:01/M
8 Cyrus Gray Brighton MI 9 71 25:40.8 8:15/M
9 Miles Buckley Brighton MI 10 72 25:42.3 8:16/M
10 Ian Gruenhagen Westland MI 13 83 26:40.9 8:34/M
11 Steven Schneider Ann Arbor MI 07 92 27:03.2 8:42/M
12 James Petrucci Howell MI 8 104 27:31.0 8:51/M
13 Jacob Thomas Ann Arbor MI 11 115 28:08.5 9:03/M
14 Hunter Soraruf Brighton MI 12 144 29:49.2 9:35/M
15 Henry Dabrowski Brighton MI 9 160 30:55.1 9:56/M
16 Luke Goodman Brighton MI 07 163 31:00.2 9:58/M
17 Nathan Moskal Brighton MI 09 173 31:33.1 10:09/M
18 Declan Concepcion Brighton MI 12 177 31:50.9 10:14/M
19 Nicklolas Moskal Howell MI 10 203 33:38.2 10:49/M
20 Christopher Root Howell MI 09 221 36:14.5 11:39/M
21 Niklas Woodard Howell MI 12 244 38:06.2 12:15/M
22 Austin Woodard Howell MI 14 246 38:15.1 12:18/M
23 Spencer Sanders Brighton MI 6 268 41:29.9 13:20/M
24 Jonathan Horcha Brighton MI 9 284 45:33.5 14:39/M
25 Calvin Schneider Ann Arbor MI 10 300 50:10.1 16:08/M

Male 15 to 19

Place Name City Age Overall Total Time Pace
1 Jerod Allen South Lyon MI 17 3 17:26.1 5:36/M
2 Ty Buckley Brighton MI 15 4 17:28.0 5:37/M
3 Matt Conroy Washington DC 16 5 17:50.5 5:44/M
4 Austin Urso Tampa FL 17 14 20:49.0 6:42/M
5 Tyler Bryant Chagrin Falls OH 19 26 21:51.5 7:02/M
6 Kyle Hanson Brighton MI 19 68 25:22.4 8:09/M
7 Jack Wagenschutz Canton MI 15 175 31:44.7 10:12/M

Male 20 to 24

Place Name City Age Overall Total Time Pace
1 David Brown East Lansing MI 23 19 21:33.8 6:56/M
2 Jacob Kanclerz Lansing MI 24 28 22:08.1 7:07/M
3 Nick Dicarlo Pinckney MI 20 51 24:36.2 7:55/M
4 Michael Hoehn Brighton MI 23 157 30:43.4 9:53/M

Male 25 to 29

Place Name City Age Overall Total Time Pace
1 Chris Elsey South Lyon MI 29 2 17:02.2 5:29/M
2 Christopher Wanley Howell MI 26 7 18:59.9 6:06/M
3 David Whetsell Pinckney MI 29 55 24:54.7 8:00/M
4 Drew Soeder Louisville KY 26 84 26:48.7 8:37/M
5 Dave Jewell Novi MI 29 86 26:51.6 8:38/M
6 Phillip Piggins South Lyon MI 28 91 27:01.9 8:41/M
7 Dan Koenig Ann Arbor MI 28 98 27:13.4 8:45/M
8 Christopher McFarland Plymouth MA 29 106 27:35.6 8:52/M
9 Clinton Sweet Whitmore Lake MI 26 201 33:32.1 10:47/M
10 Josh Hendershot Brighton MI 28 226 36:29.2 11:44/M
11 Gareth Tomlinson Oswego IL 25 229 36:29.7 11:44/M

Male 30 to 34

Place Name City Age Overall Total Time Pace
1 Matthew Wojczynski Howell MI 33 13 20:48.8 6:41/M
2 Kyle Mitchelides Jackson OH 33 25 21:49.5 7:01/M
3 Jim Turner Howell MI 32 54 24:41.7 7:56/M
4 Gary Budzar Independence OH 34 94 27:11.2 8:44/M
5 Jonathon Nunn Hope Mills NC 33 113 27:57.9 8:59/M
6 Phil Decker Farmington MI 31 209 34:24.9 11:04/M
7 Justin Scanlon Pinckney MI 34 218 35:30.2 11:25/M
8 Michael Garrett Duluth MN 34 231 36:45.8 11:49/M

Male 35 to 39

Place Name City Age Overall Total Time Pace
1 Matthew Bissett South Lyon MI 39 9 19:21.4 6:13/M
2 Ken Holman South Lyon MI 39 11 20:35.1 6:37/M
3 Ryan Ormond Novi MI 35 16 21:12.8 6:49/M
4 Brandon Lorenz South Lyon MI 38 20 21:36.5 6:57/M
5 David Fribley Brighton MI 35 58 24:59.9 8:02/M
6 David Ludkin Ypsilanti MI 35 93 27:06.4 8:43/M
7 Christopher Gadulka Bloomfield Hills MI 39 136 29:11.9 9:23/M
8 Alan Conrow South Lyon MI 35 154 30:31.4 9:49/M
9 Brian Goodman Brighton MI 39 169 31:08.6 10:01/M
10 Kevin Autry Howell MI 38 206 34:03.0 10:57/M
11 Mark Milatz Brighton MI 39 219 35:43.7 11:29/M
12 James Moskal Howell MI 37 241 38:00.3 12:13/M
13 Scott Sanders Brighton MI 39 269 41:31.6 13:21/M

Male 40 to 44

Place Name City Age Overall Total Time Pace
1 Michael Witten Canton MI 42 40 23:31.8 7:34/M
2 Drew Gruenhagen Westland MI 40 49 24:18.8 7:49/M
3 Geoffrey Wood Novi MI 44 53 24:41.7 7:56/M
4 Derek Fukuda Granite Bay CA 42 65 25:17.2 8:08/M
5 Jason Baker Midland MI 41 95 27:12.4 8:45/M
6 Mike Petrucci Howell MI 40 103 27:30.9 8:51/M
7 J.d. Concepcion Brighton MI 43 146 30:00.6 9:39/M
8 Jason Herington Brighton MI 43 189 32:40.6 10:30/M
9 Andrew Woodard Howell MI 40 247 38:15.2 12:18/M
10 Jim Plieth Harrison Township MI 42 258 39:21.3 12:39/M
11 Bart Horcha Brighton MI 41 282 45:33.3 14:39/M

Male 45 to 49

Place Name City Age Overall Total Time Pace
1 Todd Mailloux South Lyon MI 47 23 21:43.9 6:59/M
2 Joel Allen South Lyon MI 48 41 23:49.5 7:39/M
3 Mark Tyler Pinckney MI 48 66 25:21.9 8:09/M
4 Carmi Edwards Walled Lake MI 47 81 26:35.8 8:33/M
5 Mike Lavely Brighton MI 45 96 27:12.6 8:45/M
6 Chris Ratliff Brighton MI 45 132 28:52.2 9:17/M
7 Russ Fischer Brighton MI 47 155 30:32.0 9:49/M
8 Rod Taylor Batesville IN 47 159 30:44.6 9:53/M
9 Mark Burnham Brighton MI 47 277 43:09.0 13:52/M
10 Jeff Crutchfield Mount Juliet TN 45 308 52:54.7 17:01/M

Male 50 to 54

Place Name City Age Overall Total Time Pace
1 Kelly Carmichael Galveston TX 52 17 21:26.7 6:54/M
2 Lyle Sanderson South Lyon MI 50 24 21:48.6 7:01/M
3 Chris Luke Milford MI 51 27 22:06.6 7:06/M
4 James Blazo Brighton MI 52 38 23:28.5 7:33/M
5 John Jenkins Pinckney MI 51 59 25:03.5 8:03/M
6 Todd Haberman Rochester MI 50 126 28:29.6 9:10/M
7 Thomas Groechel Novi MI 52 139 29:35.6 9:31/M
8 Mark Wagenschutz Canton MI 51 174 31:40.8 10:11/M
9 Jim Kanclerz Howell MI 53 262 40:12.8 12:56/M
10 Robert Triffo Brighton MI 54 267 41:26.3 13:19/M
11 Greg Soraruf Brighton MI 50 273 42:14.4 13:35/M
12 Steve Stygs Northville MI 54 289 46:35.7 14:59/M
13 Thomas Hardymam Emington IL 51 291 47:39.5 15:19/M

Male 55 to 59

Place Name City Age Overall Total Time Pace
1 George Reynolds Pinckney MI 58 18 21:29.9 6:54/M
2 Keith Peterson Howell MI 55 48 24:16.3 7:48/M
3 Michael Tucker Franklin MI 56 62 25:10.1 8:06/M
4 Jim Gardner Brighton MI 56 63 25:11.0 8:06/M
5 Bob Fuchs Brighton MI 55 127 28:30.5 9:10/M
6 James Scott South Lyon MI 56 166 31:02.9 9:59/M
7 Alan Shields Dearborn MI 59 171 31:22.4 10:05/M
8 Robert Bryant Chagrin Falls OH 55 220 35:51.6 11:32/M
9 Randall Michmerhuizen Howell MI 57 242 38:04.4 12:14/M
10 Mark Kenny Brighton MI 56 283 45:33.5 14:39/M
11 David Cryderman Westland MI 59 307 52:21.3 16:50/M

Male 60 to 64

Place Name City Age Overall Total Time Pace
1 Jeff Fletcher Brighton MI 61 32 23:04.4 7:25/M
2 Mark Van Netten South Lyon MI 63 44 24:06.0 7:45/M
3 David Benedict Brighton MI 62 69 25:27.1 8:11/M
4 Jon Evenson Brighton MI 63 170 31:12.7 10:02/M
5 Charles Soeder South Lyon MI 61 192 33:04.8 10:38/M
6 Tom Walsh Novi MI 61 296 48:42.2 15:40/M

Male 65 to 69

Place Name City Age Overall Total Time Pace
1 Mark Cryderman Milford MI 68 30 22:15.5 7:09/M
2 Ian Shearing Brighton MI 66 75 26:01.3 8:22/M
3 Keith Wright Howell MI 65 131 28:35.7 9:11/M
4 Jim Dudley Brighton MI 66 196 33:18.0 10:42/M
5 Jeff Carl Brighton MI 65 208 34:24.8 11:04/M
6 Woodie Shipp Milford MI 67 311 53:36.0 17:14/M

Male 70 and over

Place Name City Age Overall Total Time Pace
1 Bill Anderson Westland MI 70 172 31:23.0 10:05/M
2 Jerome E. Gross Brighton MI 77 293 48:02.5 15:27/M